Time;durP1;ratioP1;P1;durP2;ratioP2;P2;SDS_P1;SDS_P2;PMS_P1;PMS_P2;Temp;Humidity;BMP_temperature;BMP_pressure;BME280_temperature;BME280_humidity;BME280_pressure;Samples;Min_cycle;Max_cycle;Signal;HPM_P1;HPM_P2
2023/04/28 00:00:03;;;;;;;3.78;2.20;;;15.50;96.70;;;;;;4964778;28;20149;-71
2023/04/28 00:02:31;;;;;;;5.65;2.28;;;15.50;96.70;;;;;;4963443;28;20043;-71
2023/04/28 00:04:59;;;;;;;4.03;1.90;;;15.50;96.70;;;;;;4962814;28;20051;-70
2023/04/28 00:07:27;;;;;;;4.35;1.88;;;15.50;96.70;;;;;;4963420;28;20047;-70
2023/04/28 00:09:55;;;;;;;3.33;1.50;;;15.40;96.70;;;;;;4964617;28;20106;-71
2023/04/28 00:12:23;;;;;;;5.45;1.40;;;15.40;96.70;;;;;;4960459;28;20030;-71
2023/04/28 00:14:53;;;;;;;3.35;1.50;;;15.30;96.70;;;;;;4962572;28;20047;-71
2023/04/28 00:17:21;;;;;;;4.63;1.70;;;15.30;96.70;;;;;;4964546;28;20035;-70
2023/04/28 00:19:50;;;;;;;6.47;1.58;;;15.20;96.70;;;;;;4965164;28;20051;-70
2023/04/28 00:22:18;;;;;;;3.60;1.38;;;15.10;96.70;;;;;;4964773;28;20038;-70
2023/04/28 00:24:46;;;;;;;4.40;1.50;;;15.20;96.70;;;;;;4963080;28;20665;-71
2023/04/28 00:27:14;;;;;;;3.00;1.23;;;15.20;96.70;;;;;;4963629;28;20190;-72
2023/04/28 00:29:42;;;;;;;5.68;1.58;;;15.10;96.70;;;;;;4962940;28;20042;-71
2023/04/28 00:32:12;;;;;;;4.55;1.48;;;15.10;96.70;;;;;;4963618;28;20480;-71
2023/04/28 00:34:40;;;;;;;2.08;1.27;;;15.00;96.70;;;;;;4964150;28;20053;-71
2023/04/28 00:37:09;;;;;;;3.20;1.42;;;15.00;96.70;;;;;;4962339;28;20054;-70
2023/04/28 00:39:37;;;;;;;4.68;1.67;;;14.90;96.70;;;;;;4962750;28;20133;-70
2023/04/28 00:42:06;;;;;;;2.00;0.85;;;15.00;96.70;;;;;;4947168;28;20031;-70
2023/04/28 00:44:34;;;;;;;3.35;1.20;;;15.10;96.70;;;;;;4946902;28;20084;-70
2023/04/28 00:47:03;;;;;;;2.65;1.00;;;15.10;96.70;;;;;;4962932;28;20099;-71
2023/04/28 00:49:33;;;;;;;4.00;1.25;;;15.10;96.70;;;;;;4963454;28;20050;-71
2023/04/28 00:52:04;;;;;;;4.88;1.58;;;15.00;96.70;;;;;;4963736;28;20039;-71
2023/04/28 00:54:33;;;;;;;5.93;2.50;;;15.00;96.70;;;;;;4966573;28;20918;-70
2023/04/28 00:57:02;;;;;;;5.05;1.60;;;15.10;96.70;;;;;;4943184;28;20169;-70
2023/04/28 00:59:30;;;;;;;3.33;1.52;;;15.10;96.70;;;;;;4959610;28;20042;-70
2023/04/28 01:02:00;;;;;;;2.22;1.02;;;15.00;96.70;;;;;;4985114;28;20066;-72
2023/04/28 01:04:29;;;;;;;5.25;1.50;;;14.80;96.70;;;;;;4962506;28;20516;-71
2023/04/28 01:07:00;;;;;;;3.47;1.35;;;14.80;96.70;;;;;;4947411;28;20047;-71
2023/04/28 01:09:28;;;;;;;3.63;1.65;;;14.90;96.70;;;;;;4961146;28;20046;-71
2023/04/28 01:11:57;;;;;;;3.55;1.60;;;14.90;96.70;;;;;;4946189;28;20043;-71
2023/04/28 01:14:47;;;;;;;4.32;1.27;;;14.80;96.70;;;;;;4962389;28;20050;-70
2023/04/28 01:17:16;;;;;;;4.65;1.58;;;14.80;96.70;;;;;;4985315;28;20500;-70
2023/04/28 01:19:44;;;;;;;4.22;1.48;;;14.90;96.70;;;;;;4946688;28;20050;-71
2023/04/28 01:22:15;;;;;;;3.60;1.20;;;15.00;96.70;;;;;;4961497;28;20137;-70
2023/04/28 01:24:45;;;;;;;3.25;1.50;;;15.00;96.70;;;;;;4961646;28;20153;-71
2023/04/28 01:27:14;;;;;;;4.38;1.50;;;15.00;96.70;;;;;;4962252;28;20051;-71
2023/04/28 01:29:42;;;;;;;2.40;1.10;;;14.80;96.70;;;;;;4962043;28;20517;-71
2023/04/28 01:32:10;;;;;;;3.03;1.55;;;14.60;96.70;;;;;;4946447;28;20056;-71
2023/04/28 01:34:39;;;;;;;3.65;1.40;;;14.50;96.70;;;;;;4946762;28;20386;-71
2023/04/28 01:37:08;;;;;;;3.42;1.52;;;14.70;96.70;;;;;;4962736;28;20059;-71
2023/04/28 01:39:37;;;;;;;3.72;1.25;;;14.70;96.70;;;;;;4964282;28;20146;-70
2023/04/28 01:42:06;;;;;;;3.80;1.38;;;14.70;96.70;;;;;;4961719;28;20062;-70
2023/04/28 01:44:34;;;;;;;3.97;1.42;;;14.60;96.70;;;;;;4946015;28;20057;-69
2023/04/28 01:47:02;;;;;;;2.95;1.50;;;14.40;96.70;;;;;;4961834;28;20069;-69
2023/04/28 01:49:31;;;;;;;2.88;1.40;;;14.50;96.70;;;;;;4946086;28;20050;-69
2023/04/28 01:51:59;;;;;;;2.53;1.20;;;14.50;96.70;;;;;;4963085;28;20118;-70
2023/04/28 01:54:27;;;;;;;2.78;1.15;;;14.50;96.70;;;;;;4967707;28;20054;-70
2023/04/28 01:56:55;;;;;;;4.22;1.55;;;14.50;96.70;;;;;;4966979;28;20046;-69
2023/04/28 01:59:26;;;;;;;4.80;1.40;;;14.50;96.70;;;;;;4966167;28;20038;-70
2023/04/28 02:01:55;;;;;;;2.92;1.30;;;14.50;96.70;;;;;;4947664;28;20512;-70
2023/04/28 02:04:23;;;;;;;3.38;1.25;;;14.40;96.70;;;;;;4987811;28;20045;-70
2023/04/28 02:06:51;;;;;;;2.80;1.45;;;14.40;96.70;;;;;;4966566;28;20121;-70
2023/04/28 02:09:20;;;;;;;4.28;1.35;;;14.40;96.70;;;;;;4988782;28;20106;-70
2023/04/28 02:11:48;;;;;;;4.22;1.35;;;14.40;96.70;;;;;;4966759;28;20043;-70
2023/04/28 02:14:16;;;;;;;4.13;1.45;;;14.40;96.70;;;;;;4967190;28;20047;-70
2023/04/28 02:16:46;;;;;;;4.43;1.60;;;14.30;96.70;;;;;;4961042;28;20058;-70
2023/04/28 02:19:15;;;;;;;4.65;1.80;;;14.40;96.70;;;;;;4966931;28;20046;-71
2023/04/28 02:21:42;;;;;;;2.80;1.27;;;14.50;96.70;;;;;;4965035;28;20106;-71
2023/04/28 02:24:11;;;;;;;6.30;2.03;;;14.50;96.70;;;;;;4964610;28;20465;-71
2023/04/28 02:26:40;;;;;;;5.10;1.77;;;14.40;96.70;;;;;;4965597;28;20043;-71
2023/04/28 02:29:08;;;;;;;5.50;1.77;;;14.30;96.70;;;;;;4964835;28;20640;-71
2023/04/28 02:31:36;;;;;;;6.22;2.50;;;14.20;96.70;;;;;;4965090;28;20082;-70
2023/04/28 02:34:06;;;;;;;6.45;2.35;;;14.10;96.70;;;;;;4965420;28;20055;-71
2023/04/28 02:36:34;;;;;;;3.97;1.73;;;14.10;96.70;;;;;;4965841;28;20512;-71
2023/04/28 02:39:03;;;;;;;6.53;2.03;;;14.20;96.70;;;;;;4965310;28;20049;-71
2023/04/28 02:41:33;;;;;;;5.25;2.33;;;14.00;96.70;;;;;;4963082;28;20145;-70
2023/04/28 02:44:02;;;;;;;6.32;2.00;;;14.00;96.70;;;;;;4964895;28;20137;-71
2023/04/28 02:46:30;;;;;;;4.32;1.88;;;13.90;96.70;;;;;;4962626;28;20128;-70
2023/04/28 02:48:58;;;;;;;6.18;2.25;;;13.90;96.70;;;;;;4965009;28;20069;-72
2023/04/28 02:51:27;;;;;;;4.22;2.00;;;13.90;96.70;;;;;;4964699;28;20623;-71
2023/04/28 02:53:56;;;;;;;5.43;2.08;;;13.90;96.70;;;;;;4966509;28;20052;-71
2023/04/28 02:56:24;;;;;;;3.80;2.00;;;13.80;96.70;;;;;;4971670;28;20116;-72
2023/04/28 02:58:52;;;;;;;6.15;1.80;;;13.80;96.70;;;;;;4964061;28;20043;-70
2023/04/28 03:01:20;;;;;;;3.10;1.55;;;13.80;96.70;;;;;;4965413;28;20046;-70
2023/04/28 03:03:48;;;;;;;4.30;1.80;;;13.90;96.70;;;;;;4964981;28;20097;-71
2023/04/28 03:06:16;;;;;;;3.97;1.95;;;13.90;96.70;;;;;;4963223;28;20141;-70
2023/04/28 03:08:47;;;;;;;5.45;1.75;;;13.90;96.70;;;;;;4948037;28;20523;-68
2023/04/28 03:11:15;;;;;;;4.45;1.48;;;13.90;96.70;;;;;;4963836;28;20055;-70
2023/04/28 03:13:43;;;;;;;5.00;1.67;;;13.90;96.70;;;;;;4965291;28;20514;-72
2023/04/28 03:16:11;;;;;;;4.97;1.52;;;13.80;96.70;;;;;;4964673;28;20101;-71
2023/04/28 03:18:40;;;;;;;4.07;1.77;;;13.70;96.70;;;;;;4964560;28;20066;-72
2023/04/28 03:21:08;;;;;;;4.20;1.83;;;13.60;96.70;;;;;;4964206;28;20051;-71
2023/04/28 03:23:36;;;;;;;4.10;1.42;;;13.70;96.70;;;;;;4964986;28;20038;-71
2023/04/28 03:26:06;;;;;;;2.13;1.23;;;13.70;96.70;;;;;;4965468;28;20058;-71
2023/04/28 03:28:34;;;;;;;4.03;1.42;;;13.60;96.70;;;;;;4967031;28;20105;-71
2023/04/28 03:31:02;;;;;;;3.08;1.70;;;13.50;96.70;;;;;;4964144;28;20051;-71
2023/04/28 03:33:30;;;;;;;2.58;1.40;;;13.60;96.70;;;;;;4978067;28;20050;-71
2023/04/28 03:36:00;;;;;;;2.88;1.58;;;13.60;96.70;;;;;;4963800;28;20083;-71
2023/04/28 03:38:29;;;;;;;1.45;0.88;;;13.50;96.70;;;;;;4950712;28;20134;-71
2023/04/28 03:40:57;;;;;;;2.50;1.20;;;13.40;96.70;;;;;;4964644;28;20619;-71
2023/04/28 03:43:29;;;;;;;4.50;1.30;;;13.40;96.70;;;;;;4966251;28;20054;-70
2023/04/28 03:46:17;;;;;;;4.28;1.23;;;13.60;96.70;;;;;;4964270;28;20125;-71
2023/04/28 03:48:46;;;;;;;3.88;1.15;;;13.70;96.70;;;;;;4968733;28;20070;-71
2023/04/28 03:51:14;;;;;;;2.30;0.98;;;13.70;96.70;;;;;;4963304;28;20038;-70
2023/04/28 03:53:42;;;;;;;3.28;1.13;;;13.70;96.70;;;;;;4965111;28;20054;-70
2023/04/28 03:56:10;;;;;;;3.30;1.23;;;13.50;96.70;;;;;;4964242;28;20038;-70
2023/04/28 03:58:40;;;;;;;3.45;1.10;;;13.60;96.70;;;;;;4963318;28;20596;-70
2023/04/28 04:01:08;;;;;;;3.88;1.40;;;13.50;96.70;;;;;;4947411;28;20551;-70
2023/04/28 04:03:36;;;;;;;2.75;1.02;;;13.60;96.70;;;;;;4969505;28;20444;-70
2023/04/28 04:06:06;;;;;;;2.65;1.10;;;13.50;96.70;;;;;;4963527;28;20078;-70
2023/04/28 04:08:34;;;;;;;6.53;1.40;;;13.60;96.70;;;;;;4962859;28;20043;-70
2023/04/28 04:11:02;;;;;;;2.40;1.30;;;13.50;96.70;;;;;;4966948;28;20144;-71
2023/04/28 04:13:30;;;;;;;2.70;1.40;;;13.40;96.70;;;;;;4962259;28;20050;-71
2023/04/28 04:16:00;;;;;;;3.08;1.38;;;13.40;96.70;;;;;;4963862;28;20055;-70
2023/04/28 04:18:28;;;;;;;2.50;1.30;;;13.40;96.70;;;;;;4963692;28;20085;-71
2023/04/28 04:21:18;;;;;;;3.95;1.45;;;13.40;96.70;;;;;;4963869;28;20142;-71
2023/04/28 04:23:46;;;;;;;2.45;1.25;;;13.20;96.70;;;;;;4963103;28;20578;-71
2023/04/28 04:26:14;;;;;;;1.80;1.00;;;13.30;96.70;;;;;;4947473;28;20039;-71
2023/04/28 04:28:43;;;;;;;4.55;1.10;;;13.40;96.70;;;;;;4963564;28;20855;-71
2023/04/28 04:31:14;;;;;;;6.25;1.30;;;13.40;96.70;;;;;;4963531;28;20054;-72
2023/04/28 04:33:43;;;;;;;2.25;1.05;;;13.30;96.70;;;;;;4947463;28;20126;-71
2023/04/28 04:36:11;;;;;;;3.35;1.40;;;13.20;96.70;;;;;;4963412;28;20893;-72
2023/04/28 04:38:40;;;;;;;3.83;1.40;;;13.20;96.70;;;;;;4960894;28;21545;-72
2023/04/28 04:41:14;;;;;;;3.17;1.30;;;13.20;96.70;;;;;;4963917;28;20723;-71
2023/04/28 04:43:43;;;;;;;2.97;1.20;;;13.20;96.70;;;;;;4947241;28;20047;-71
2023/04/28 04:46:12;;;;;;;3.78;1.42;;;13.20;96.70;;;;;;4962897;28;20058;-72
2023/04/28 04:48:41;;;;;;;4.97;1.48;;;13.40;96.70;;;;;;4962486;28;20057;-71
2023/04/28 04:51:09;;;;;;;2.85;1.30;;;13.40;96.70;;;;;;4961456;28;20054;-71
2023/04/28 04:53:37;;;;;;;3.35;1.70;;;13.40;96.70;;;;;;4969007;28;20576;-72
2023/04/28 04:56:06;;;;;;;4.32;1.45;;;13.30;96.70;;;;;;4962925;28;20129;-71
2023/04/28 04:58:36;;;;;;;2.22;1.40;;;13.20;96.70;;;;;;4962202;28;20046;-70
2023/04/28 05:01:38;;;;;;;3.40;1.80;;;13.20;96.70;;;;;;4940898;28;20065;-70
2023/04/28 05:04:07;;;;;;;4.20;1.75;;;13.30;96.70;;;;;;4962054;28;20097;-70
2023/04/28 05:06:36;;;;;;;6.53;2.22;;;13.30;96.70;;;;;;4962513;28;20066;-71
2023/04/28 05:09:05;;;;;;;4.07;1.77;;;13.20;96.70;;;;;;4962286;28;20054;-70
2023/04/28 05:11:33;;;;;;;5.65;1.92;;;13.20;96.70;;;;;;4962083;28;20050;-71
2023/04/28 05:14:03;;;;;;;3.22;1.90;;;13.10;96.70;;;;;;4963095;28;20061;-71
2023/04/28 05:16:31;;;;;;;4.90;1.80;;;13.20;96.70;;;;;;4947236;28;20423;-70
2023/04/28 05:19:10;;;;;;;6.32;2.05;;;13.40;96.70;;;;;;4965128;28;20058;-71
2023/04/28 05:21:38;;;;;;;5.25;1.90;;;13.50;96.70;;;;;;4966443;28;20066;-70
2023/04/28 05:24:06;;;;;;;5.28;2.10;;;13.30;96.70;;;;;;4964666;28;20039;-71
2023/04/28 05:26:35;;;;;;;5.20;1.90;;;13.40;96.70;;;;;;4946268;28;20061;-73
2023/04/28 05:29:08;;;;;;;3.75;1.83;;;13.50;96.70;;;;;;4947185;28;20050;-71
2023/04/28 05:31:36;;;;;;;4.78;2.05;;;13.60;96.70;;;;;;4960510;28;20415;-70
2023/04/28 05:34:04;;;;;;;3.92;1.98;;;13.60;96.70;;;;;;4984738;28;20046;-71
2023/04/28 05:36:34;;;;;;;4.68;1.90;;;13.80;96.70;;;;;;4962330;28;20062;-71
2023/04/28 05:39:03;;;;;;;7.65;2.88;;;13.80;96.70;;;;;;4962028;28;20047;-70
2023/04/28 05:41:31;;;;;;;6.00;2.45;;;13.80;96.70;;;;;;4963710;28;20047;-71
2023/04/28 05:43:59;;;;;;;5.60;2.15;;;13.80;96.70;;;;;;4944944;28;20636;-71
2023/04/28 05:46:29;;;;;;;3.88;2.00;;;13.90;96.70;;;;;;4962397;28;20050;-72
2023/04/28 05:48:59;;;;;;;5.38;2.20;;;13.90;96.70;;;;;;4946803;28;20101;-71
2023/04/28 05:51:34;;;;;;;5.13;2.47;;;13.70;96.70;;;;;;4961789;28;20070;-72
2023/04/28 05:54:02;;;;;;;5.72;2.95;;;13.80;96.70;;;;;;4959178;28;20117;-72
2023/04/28 05:56:35;;;;;;;3.70;2.25;;;13.90;96.70;;;;;;4961866;28;20552;-72
2023/04/28 05:59:03;;;;;;;4.15;3.03;;;13.90;96.70;;;;;;4945646;28;20142;-72
2023/04/28 06:01:31;;;;;;;5.07;2.90;;;13.90;96.70;;;;;;4963354;28;20074;-72
2023/04/28 06:04:00;;;;;;;5.95;3.25;;;13.90;96.70;;;;;;4962111;28;20061;-72
2023/04/28 06:06:29;;;;;;;6.03;3.38;;;13.90;96.70;;;;;;4946503;28;20531;-71
2023/04/28 06:08:59;;;;;;;5.88;2.83;;;13.90;96.70;;;;;;4958948;28;20043;-70
2023/04/28 06:11:27;;;;;;;5.43;3.15;;;13.90;96.70;;;;;;4961965;28;20066;-71
2023/04/28 06:13:57;;;;;;;6.10;3.20;;;13.90;96.70;;;;;;4945668;28;20051;-71
2023/04/28 06:16:25;;;;;;;4.88;2.55;;;13.90;96.70;;;;;;4964663;28;20074;-70
2023/04/28 06:18:53;;;;;;;4.20;2.50;;;13.90;96.70;;;;;;4985621;28;20097;-72
2023/04/28 06:21:23;;;;;;;4.05;2.90;;;14.10;96.70;;;;;;4961752;28;20110;-72
2023/04/28 06:23:52;;;;;;;4.88;2.83;;;14.20;96.70;;;;;;4961791;28;20139;-72
2023/04/28 06:26:22;;;;;;;5.97;2.80;;;14.20;96.70;;;;;;4961202;28;20042;-71
2023/04/28 06:28:51;;;;;;;7.25;3.30;;;14.30;96.70;;;;;;4963110;28;20050;-71
2023/04/28 06:31:22;;;;;;;6.35;3.10;;;14.40;96.70;;;;;;4961323;28;20043;-72
2023/04/28 06:33:53;;;;;;;6.00;3.22;;;14.20;96.70;;;;;;4945801;28;20059;-71
2023/04/28 06:36:22;;;;;;;5.80;2.78;;;14.30;96.70;;;;;;4945259;28;20050;-71
2023/04/28 06:38:50;;;;;;;6.93;3.17;;;14.50;96.70;;;;;;4958448;28;20090;-71
2023/04/28 06:41:19;;;;;;;7.85;3.42;;;14.60;96.70;;;;;;4966400;28;20184;-72
2023/04/28 06:43:51;;;;;;;8.27;3.20;;;14.60;96.70;;;;;;4964887;28;20102;-71
2023/04/28 06:46:24;;;;;;;4.60;3.33;;;14.40;96.70;;;;;;4965015;28;20038;-72
2023/04/28 06:48:52;;;;;;;6.97;3.25;;;14.40;96.70;;;;;;4965387;28;20039;-77
2023/04/28 06:51:21;;;;;;;6.97;3.60;;;14.50;96.70;;;;;;4965894;28;20039;-72
2023/04/28 06:53:54;;;;;;;8.80;3.75;;;14.70;96.70;;;;;;4965793;28;20504;-72
2023/04/28 06:56:22;;;;;;;6.35;3.45;;;14.80;96.70;;;;;;4965258;28;20437;-71
2023/04/28 06:58:53;;;;;;;8.02;3.53;;;14.90;96.70;;;;;;4964185;28;20074;-71
2023/04/28 07:01:22;;;;;;;7.00;3.83;;;15.00;96.70;;;;;;4963041;28;20047;-72
2023/04/28 07:03:50;;;;;;;8.75;3.65;;;15.00;96.70;;;;;;4965144;28;20038;-72
2023/04/28 07:06:19;;;;;;;8.35;3.53;;;15.00;96.70;;;;;;4955434;28;20493;-72
2023/04/28 07:08:47;;;;;;;7.30;3.80;;;15.00;96.70;;;;;;4961503;28;20576;-71
2023/04/28 07:11:22;;;;;;;6.45;2.90;;;15.00;96.70;;;;;;4963775;28;20055;-72
2023/04/28 07:14:20;;;;;;;7.88;3.00;;;15.00;96.70;;;;;;4958632;28;20053;-72
2023/04/28 07:16:54;;;;;;;5.40;3.15;;;15.10;96.70;;;;;;4965032;28;20047;-72
2023/04/28 07:19:23;;;;;;;5.63;2.97;;;15.10;96.70;;;;;;4962802;28;20043;-72
2023/04/28 07:21:50;;;;;;;4.90;2.97;;;15.20;96.70;;;;;;4962034;28;20490;-72
2023/04/28 07:24:22;;;;;;;5.65;2.80;;;15.20;96.70;;;;;;4960083;28;20070;-73
2023/04/28 07:26:51;;;;;;;6.13;2.90;;;15.30;96.70;;;;;;4964590;28;20394;-72
2023/04/28 07:29:20;;;;;;;8.77;3.10;;;15.30;96.70;;;;;;4948941;28;20043;-72
2023/04/28 07:31:48;;;;;;;5.82;2.85;;;15.30;96.70;;;;;;4977817;28;20130;-72
2023/04/28 07:34:16;;;;;;;5.32;2.72;;;15.40;96.70;;;;;;4963733;28;20050;-72
2023/04/28 07:36:45;;;;;;;6.90;3.13;;;15.50;96.70;;;;;;4946362;28;20053;-71
2023/04/28 07:39:13;;;;;;;8.68;3.30;;;15.60;96.70;;;;;;4955979;28;20631;-73
2023/04/28 07:41:41;;;;;;;5.05;2.90;;;15.70;96.70;;;;;;4955694;28;20043;-72
2023/04/28 07:44:09;;;;;;;5.60;2.70;;;15.80;96.70;;;;;;4963724;28;20046;-72
2023/04/28 07:46:38;;;;;;;7.03;3.38;;;15.90;96.70;;;;;;4963895;28;20051;-72
2023/04/28 07:49:07;;;;;;;7.55;3.58;;;15.90;96.70;;;;;;4963247;28;20062;-73
2023/04/28 07:51:35;;;;;;;13.85;5.85;;;16.00;96.70;;;;;;4970738;28;20484;-72
2023/04/28 07:54:03;;;;;;;10.80;4.20;;;16.10;96.70;;;;;;4966516;28;20047;-71
2023/04/28 07:56:34;;;;;;;6.82;3.00;;;16.10;96.70;;;;;;4947920;28;20042;-72
2023/04/28 07:59:02;;;;;;;10.73;3.20;;;16.20;96.70;;;;;;4947299;28;20043;-72
2023/04/28 08:01:30;;;;;;;7.13;2.80;;;16.30;96.70;;;;;;4963330;28;20449;-72
2023/04/28 08:04:00;;;;;;;5.22;2.63;;;16.30;96.70;;;;;;4964990;28;20106;-72
2023/04/28 08:06:29;;;;;;;8.07;2.95;;;16.40;96.70;;;;;;4947992;28;20050;-72
2023/04/28 08:08:57;;;;;;;4.82;2.40;;;16.40;96.70;;;;;;4958955;28;20409;-72
2023/04/28 08:11:25;;;;;;;5.78;2.78;;;16.50;96.70;;;;;;4963013;28;20055;-73
2023/04/28 08:13:53;;;;;;;7.35;3.00;;;16.60;96.70;;;;;;4964881;28;20129;-72
2023/04/28 08:16:22;;;;;;;8.15;2.45;;;16.70;96.70;;;;;;4963322;28;20039;-72
2023/04/28 08:18:51;;;;;;;5.90;2.30;;;16.80;96.70;;;;;;4967442;28;20061;-73
2023/04/28 08:21:20;;;;;;;8.63;2.83;;;16.80;96.70;;;;;;4958797;28;20051;-72
2023/04/28 08:23:49;;;;;;;6.35;2.88;;;16.90;96.70;;;;;;4964014;28;20046;-73
2023/04/28 08:26:17;;;;;;;5.63;2.63;;;17.00;96.70;;;;;;4962672;28;20047;-72
2023/04/28 08:28:45;;;;;;;8.90;3.03;;;17.20;96.70;;;;;;4961749;28;20511;-74
2023/04/28 08:31:13;;;;;;;6.93;2.72;;;17.30;96.70;;;;;;4964031;28;20508;-72
2023/04/28 08:33:47;;;;;;;5.53;2.03;;;17.30;96.70;;;;;;4967834;28;20049;-72
2023/04/28 08:36:17;;;;;;;6.13;2.45;;;17.40;96.70;;;;;;4963202;28;20157;-72
2023/04/28 08:38:46;;;;;;;11.88;3.72;;;17.50;96.70;;;;;;4961848;28;20462;-71
2023/04/28 08:41:18;;;;;;;6.32;2.47;;;17.50;96.70;;;;;;4957423;28;20138;-72
2023/04/28 08:43:47;;;;;;;7.05;2.42;;;17.60;96.70;;;;;;4972016;28;20050;-72
2023/04/28 08:46:17;;;;;;;4.75;1.88;;;17.60;96.70;;;;;;4965411;28;20043;-73
2023/04/28 08:48:45;;;;;;;5.55;1.70;;;17.60;96.70;;;;;;4963450;28;20039;-72
2023/04/28 08:51:15;;;;;;;4.50;2.10;;;17.80;96.70;;;;;;4963334;28;20085;-72
2023/04/28 08:53:51;;;;;;;6.60;1.80;;;17.90;96.70;;;;;;4964972;28;20046;-72
2023/04/28 08:56:26;;;;;;;6.70;2.20;;;18.00;96.70;;;;;;4956990;28;20129;-72
2023/04/28 08:58:54;;;;;;;7.20;2.83;;;18.00;96.70;;;;;;4962240;28;20039;-73
2023/04/28 09:01:23;;;;;;;6.00;2.25;;;18.20;96.70;;;;;;4962454;28;20077;-71
2023/04/28 09:03:53;;;;;;;3.53;1.60;;;18.20;96.70;;;;;;4944963;28;20059;-72
2023/04/28 09:06:22;;;;;;;3.28;1.27;;;18.30;96.70;;;;;;4957642;28;20145;-72
2023/04/28 09:08:52;;;;;;;6.35;2.08;;;18.50;96.70;;;;;;4962366;28;20066;-72
2023/04/28 09:11:20;;;;;;;5.13;1.40;;;18.50;96.70;;;;;;4963849;28;20058;-72
2023/04/28 09:13:49;;;;;;;4.93;1.55;;;18.50;96.70;;;;;;4945739;28;20042;-72
2023/04/28 09:16:17;;;;;;;4.63;1.40;;;18.60;96.70;;;;;;4963215;28;20157;-72
2023/04/28 09:18:56;;;;;;;4.45;1.40;;;18.80;96.70;;;;;;4961138;28;20047;-72
2023/04/28 09:21:24;;;;;;;4.82;1.25;;;18.80;96.70;;;;;;4960746;28;20639;-72
2023/04/28 09:23:53;;;;;;;4.13;1.60;;;18.80;96.70;;;;;;4960789;28;20054;-72
2023/04/28 09:26:22;;;;;;;3.83;1.48;;;18.90;96.70;;;;;;4964613;28;20049;-72
2023/04/28 09:28:51;;;;;;;6.18;2.08;;;19.10;96.70;;;;;;4955918;28;20041;-71
2023/04/28 09:31:24;;;;;;;6.50;1.55;;;19.30;96.70;;;;;;4966795;28;20885;-73
2023/04/28 09:33:59;;;;;;;3.38;1.17;;;19.30;96.70;;;;;;4955898;28;20066;-72
2023/04/28 09:36:28;;;;;;;5.75;1.60;;;19.30;96.70;;;;;;4963561;28;20461;-71
2023/04/28 09:38:59;;;;;;;6.15;1.35;;;19.30;96.70;;;;;;4963312;28;20051;-71
2023/04/28 09:41:37;;;;;;;2.70;1.30;;;19.40;96.70;;;;;;4960060;28;20629;-71
2023/04/28 09:44:13;;;;;;;5.07;1.40;;;19.50;96.70;;;;;;4963692;28;20055;-71
2023/04/28 09:46:43;;;;;;;4.65;1.13;;;19.50;96.70;;;;;;4963581;28;20097;-72
2023/04/28 09:49:12;;;;;;;4.05;0.88;;;19.60;96.70;;;;;;4961328;28;20050;-71
2023/04/28 09:51:40;;;;;;;7.47;1.25;;;19.70;96.70;;;;;;4962798;28;20043;-71
2023/04/28 09:54:11;;;;;;;7.80;1.30;;;19.80;96.70;;;;;;4966940;28;20051;-72
2023/04/28 09:56:42;;;;;;;4.57;1.23;;;20.00;96.70;;;;;;4961788;28;20061;-72
2023/04/28 09:59:13;;;;;;;5.20;1.40;;;20.20;96.70;;;;;;4963423;28;20138;-71
2023/04/28 10:01:43;;;;;;;4.07;1.42;;;20.30;96.70;;;;;;4945360;28;20051;-71
2023/04/28 10:04:13;;;;;;;4.15;1.35;;;20.30;96.70;;;;;;4955270;28;20564;-71
2023/04/28 10:06:43;;;;;;;8.10;1.98;;;20.40;96.70;;;;;;4963250;28;20523;-72
2023/04/28 10:09:13;;;;;;;7.57;2.22;;;20.70;96.70;;;;;;4962150;28;20039;-71
2023/04/28 10:11:42;;;;;;;3.28;1.58;;;20.70;96.70;;;;;;4946011;28;20161;-72
2023/04/28 10:14:11;;;;;;;4.72;1.50;;;20.80;96.70;;;;;;4961957;28;20666;-71
2023/04/28 10:16:40;;;;;;;3.00;1.42;;;20.90;96.70;;;;;;4965589;28;20047;-72
2023/04/28 10:19:08;;;;;;;5.13;1.77;;;21.10;96.70;;;;;;4969949;28;20050;-71
2023/04/28 10:21:43;;;;;;;3.20;1.70;;;21.20;96.70;;;;;;4972310;28;20035;-72
2023/04/28 10:24:25;;;;;;;3.45;1.63;;;21.10;96.70;;;;;;4965461;28;20097;-72
2023/04/28 10:27:07;;;;;;;4.70;1.67;;;21.30;96.70;;;;;;4967038;28;20043;-71
2023/04/28 10:29:36;;;;;;;4.25;1.50;;;21.40;96.70;;;;;;4972055;28;20050;-72
2023/04/28 10:32:19;;;;;;;5.28;1.80;;;21.60;96.70;;;;;;4982189;28;20042;-72
2023/04/28 10:34:48;;;;;;;5.95;1.98;;;21.60;96.70;;;;;;4959119;28;20049;-72
2023/04/28 10:37:18;;;;;;;5.90;2.10;;;21.60;96.70;;;;;;4966300;28;20063;-72
2023/04/28 10:40:22;;;;;;;10.40;2.42;;;21.70;96.70;;;;;;4966022;28;20074;-72
2023/04/28 10:42:55;;;;;;;5.47;2.38;;;21.70;96.70;;;;;;4980487;28;20477;-72
2023/04/28 10:46:00;;;;;;;5.10;2.00;;;21.60;96.70;;;;;;4962099;28;20593;-72
2023/04/28 10:49:05;;;;;;;5.47;1.77;;;21.60;96.70;;;;;;4952917;28;20094;-72
2023/04/28 10:51:34;;;;;;;5.65;2.08;;;21.40;96.70;;;;;;4980617;28;20054;-71
2023/04/28 10:54:18;;;;;;;4.65;2.03;;;21.20;96.70;;;;;;4970226;28;20066;-72
2023/04/28 10:57:17;;;;;;;7.25;2.13;;;21.20;96.70;;;;;;4971713;28;20046;-72
2023/04/28 10:59:49;;;;;;;5.25;1.83;;;21.10;96.70;;;;;;4941196;28;20050;-72
2023/04/28 11:02:39;;;;;;;6.60;1.95;;;21.00;96.70;;;;;;4966171;28;20512;-71
2023/04/28 11:05:13;;;;;;;5.90;2.03;;;20.90;96.70;;;;;;4965972;28;20049;-70
2023/04/28 11:08:32;;;;;;;6.90;2.10;;;20.90;96.70;;;;;;4964137;28;20150;-70
2023/04/28 11:11:24;;;;;;;6.88;1.92;;;20.80;96.70;;;;;;4965434;28;20063;-71
2023/04/28 11:13:55;;;;;;;4.20;1.65;;;20.80;96.70;;;;;;4966027;28;20519;-71
2023/04/28 11:16:58;;;;;;;4.80;1.60;;;20.80;96.70;;;;;;4965891;28;20486;-72
2023/04/28 11:19:28;;;;;;;6.50;1.80;;;20.70;96.70;;;;;;4964285;28;20141;-72
2023/04/28 11:21:57;;;;;;;4.40;1.48;;;20.60;96.70;;;;;;4964374;28;20473;-71
2023/04/28 11:24:30;;;;;;;6.15;1.77;;;20.50;96.70;;;;;;4965840;28;20058;-71
2023/04/28 11:27:01;;;;;;;4.40;1.58;;;20.40;96.70;;;;;;4979467;28;20144;-72
2023/04/28 11:29:32;;;;;;;5.03;1.58;;;20.30;96.70;;;;;;4964144;28;20054;-72
2023/04/28 11:32:02;;;;;;;5.68;1.58;;;20.30;96.70;;;;;;4969299;28;20112;-73
2023/04/28 11:34:31;;;;;;;6.18;1.92;;;20.30;96.70;;;;;;4973471;28;20493;-72
2023/04/28 11:37:00;;;;;;;6.03;1.60;;;20.20;96.70;;;;;;4947521;28;20085;-72
2023/04/28 11:39:29;;;;;;;3.10;1.40;;;20.20;96.70;;;;;;4968152;28;20049;-72
2023/04/28 11:41:59;;;;;;;6.55;1.88;;;20.30;96.70;;;;;;4970528;28;20445;-71
2023/04/28 11:44:30;;;;;;;3.90;1.58;;;20.40;96.70;;;;;;4965705;28;20047;-71
2023/04/28 11:46:59;;;;;;;6.10;1.90;;;20.30;96.70;;;;;;4964608;28;20050;-72
2023/04/28 11:49:32;;;;;;;3.83;1.55;;;20.20;96.70;;;;;;4963072;28;20121;-72
2023/04/28 11:52:04;;;;;;;2.47;1.33;;;20.20;96.70;;;;;;4965053;28;20050;-71
2023/04/28 11:54:33;;;;;;;4.22;1.60;;;20.30;96.70;;;;;;4969545;28;20082;-71
2023/04/28 11:57:04;;;;;;;6.90;1.60;;;20.60;96.70;;;;;;4964315;28;20066;-71
2023/04/28 11:59:33;;;;;;;3.08;1.40;;;20.80;96.70;;;;;;4966193;28;20047;-72
2023/04/28 12:02:03;;;;;;;5.95;1.50;;;20.90;96.70;;;;;;4963448;28;20537;-72
2023/04/28 12:04:35;;;;;;;4.60;1.35;;;20.90;96.70;;;;;;4965268;28;20843;-72
2023/04/28 12:07:06;;;;;;;5.35;1.52;;;21.10;96.70;;;;;;4965211;28;20043;-72
2023/04/28 12:09:37;;;;;;;3.85;1.38;;;21.30;96.70;;;;;;4963650;28;20094;-72
2023/04/28 12:12:08;;;;;;;3.78;1.60;;;21.60;96.70;;;;;;4964484;28;20671;-72
2023/04/28 12:15:07;;;;;;;3.38;1.17;;;22.30;96.70;;;;;;4947233;28;20412;-72
2023/04/28 12:18:15;;;;;;;6.82;1.50;;;22.50;96.70;;;;;;4964232;28;20527;-72
2023/04/28 12:20:49;;;;;;;4.30;1.50;;;22.70;96.70;;;;;;4965512;28;20486;-71
2023/04/28 12:23:29;;;;;;;4.30;1.13;;;22.80;96.70;;;;;;4964563;28;20046;-72
2023/04/28 12:26:08;;;;;;;6.75;1.67;;;22.70;96.70;;;;;;4942854;28;20053;-72
2023/04/28 12:28:39;;;;;;;5.55;1.65;;;22.80;96.70;;;;;;4963246;28;20213;-71
2023/04/28 12:31:08;;;;;;;4.55;1.52;;;22.80;96.70;;;;;;4963636;28;20497;-71
2023/04/28 12:33:37;;;;;;;3.03;1.15;;;22.80;96.70;;;;;;4963941;28;20047;-72
2023/04/28 12:36:07;;;;;;;4.78;1.00;;;23.10;96.70;;;;;;4964846;28;20142;-72
2023/04/28 12:38:46;;;;;;;3.30;1.15;;;23.20;96.70;;;;;;4961738;28;20106;-72
2023/04/28 12:41:20;;;;;;;2.97;1.20;;;23.10;96.70;;;;;;4964354;28;20053;-72
2023/04/28 12:43:48;;;;;;;3.90;1.25;;;23.00;96.70;;;;;;4962496;28;20077;-72
2023/04/28 12:46:17;;;;;;;5.95;1.52;;;22.80;96.70;;;;;;4961718;28;20057;-72
2023/04/28 12:48:45;;;;;;;4.35;1.33;;;22.70;96.70;;;;;;4962075;28;20047;-72
2023/04/28 12:51:15;;;;;;;4.60;1.30;;;22.70;96.70;;;;;;4955082;28;20448;-72
2023/04/28 12:53:43;;;;;;;2.88;1.05;;;22.80;96.70;;;;;;4962604;28;20138;-71
2023/04/28 12:56:12;;;;;;;4.80;1.10;;;23.00;96.70;;;;;;4964344;28;20047;-72
2023/04/28 12:58:42;;;;;;;5.82;1.30;;;22.90;96.70;;;;;;4963983;28;20043;-72
2023/04/28 13:01:11;;;;;;;4.85;1.25;;;22.90;96.70;;;;;;4963519;28;20039;-71
2023/04/28 13:03:39;;;;;;;6.88;1.08;;;22.90;96.70;;;;;;4962597;28;20057;-72